• Join FlightAware (Why Join?)
  • Login
  • US Flag 
02:35AM EDT


 

Airport Tracker/Info


-or-


 

Live Flight TrackerFlight Track Log ✈ UAL5848 ✈ 13-Apr-2013 ✈ KORD - CYOW

Flight Track Log - Related Links

Times and Time Zones

All times are in EDT time to prevent confusion due to time zone crossing. See the UAL5848 flight status page for this flight to view local times or setup timezone preferences in your user account.

Time Position Orientation Groundspeed Altitude Reporting Facility
EDT Latitude Longitude Course Direction KTS MPH feet Rate Location/Type
10:50AM 42.0333 -87.9500 90° East 218 251 3,100  Level Chicago TRACON
10:52AM 42.1283 -87.8028 49° Northeast 274 315 7,500 1,980 Climbing Chicago Center
10:53AM 42.1503 -87.6956 75° East 292 336 9,300 1,560 Climbing Chicago Center
10:54AM 42.1736 -87.5778 75° East 319 367 10,800 1,200 Climbing Chicago Center
10:55AM 42.2667 -87.0371 90° East  Level FlightAware Approximate
10:55AM 42.1906 -87.4428 80° East 355 409 11,800  Level Chicago Center
10:56AM 42.1969 -87.2950 87° East 387 445 12,800 1,020 Climbing Chicago Center
10:57AM 42.2053 -87.1092 86° East 409 471 14,000 1,140 Climbing Chicago Center
10:58AM 42.2111 -86.9508 87° East 421 484 15,200 1,140 Climbing Chicago Center
10:59AM 42.2169 -86.7942 87° East 419 482 16,400 1,080 Climbing Chicago Center
11:00AM 42.2231 -86.6553 87° East 419 482 17,500 1,200 Climbing Chicago Center
11:01AM 42.2303 -86.4650 87° East 422 486 18,900 1,260 Climbing Chicago Center
11:02AM 42.2364 -86.3064 87° East 423 487 20,100 1,140 Climbing Chicago Center
11:03AM 42.2408 -86.1478 88° East 424 488 21,300 1,080 Climbing Chicago Center
11:04AM 42.2461 -85.9850 87° East 431 496 22,400 1,020 Climbing Chicago Center
11:05AM 42.2514 -85.8389 87° East 428 493 23,500 1,140 Climbing Chicago Center
11:06AM 42.2575 -85.6456 87° East 432 497 24,800 720 Climbing Chicago Center
11:07AM 42.2619 -85.4797 88° East 442 509 25,000 60 Climbing Chicago Center
11:08AM 42.2694 -85.3064 87° East 453 521 25,000  Level Cleveland Center
11:09AM 42.2744 -85.1297 88° East 465 535 25,000  Level Cleveland Center
11:10AM 42.2794 -84.9450 88° East 475 547 25,000  Level Cleveland Center
11:11AM 42.2803 -84.7539 90° East 486 559 25,000  Level Cleveland Center
11:12AM 42.2856 -84.5467 88° East 498 573 25,000  Level Cleveland Center
11:13AM 42.3231 -84.3636 74° East 498 573 25,000  Level Cleveland Center
11:14AM 42.3664 -84.1806 72° East 503 579 25,000  Level Cleveland Center
11:15AM 42.4094 -84.0031 72° East 503 579 25,000  Level Cleveland Center
11:16AM 42.4522 -83.8139 73° East 508 585 25,000  Level Cleveland Center
11:17AM 42.4947 -83.6331 72° East 508 585 25,000  Level Cleveland Center
11:18AM 42.5325 -83.4686 73° East 508 585 25,000  Level Cleveland Center
11:19AM 42.5744 -83.2817 73° East 513 590 25,000  Level Cleveland Center
11:20AM 42.6183 -83.0917 73° East 513 590 25,000  Level Cleveland Center
11:21AM 42.6597 -82.9069 73° East 513 590 25,000  Level Cleveland Center
11:22AM 42.7008 -82.7192 73° East 513 590 25,000  Level Cleveland Center
11:23AM 42.7439 -82.5283 73° East 513 590 25,000  Level Cleveland Center
11:24AM 42.7844 -82.3344 74° East 513 590 25,000  Level Cleveland Center
11:25AM 42.8289 -82.1431 72° East 513 590 25,000  Level Cleveland Center
11:27AM 42.9000 -81.7333 77° East 540 621 25,000  Level Toronto Center
11:28AM 42.9333 -81.5500 76° East 540 621 25,000  Level Toronto Center
11:29AM 42.9833 -81.3500 71° East 540 621 25,000  Level Toronto Center
11:30AM 43.0167 -81.1667 76° East 540 621 25,000  Level Toronto Center
11:31AM 43.1000 -80.9500 62° Northeast 550 633 25,000  Level Toronto Center
11:32AM 43.1833 -80.7833 56° Northeast 550 633 25,000  Level Toronto Center
11:33AM 43.2500 -80.6000 63° Northeast 550 633 25,000  Level Toronto Center
11:34AM 43.3333 -80.4167 58° Northeast 550 633 25,000  Level Toronto Center
11:35AM 43.4000 -80.2333 63° Northeast 550 633 25,000  Level Toronto Center
11:36AM 43.4833 -80.0500 58° Northeast 550 633 25,000  Level Toronto Center
11:37AM 43.5500 -79.8667 63° Northeast 550 633 25,000  Level Toronto Center
11:38AM 43.6167 -79.6833 63° Northeast 550 633 25,000  Level Toronto Center
11:39AM 43.6833 -79.5000 63° Northeast 540 621 25,000  Level Toronto Center
11:40AM 43.7333 -79.3167 69° East 540 621 25,000  Level Toronto Center
11:41AM 43.8000 -79.1167 65° Northeast 540 621 25,000  Level Toronto Center
11:42AM 43.8500 -78.9167 71° East 540 621 25,000  Level Toronto Center
11:43AM 43.9167 -78.7333 63° Northeast 540 621 25,000  Level Toronto Center
11:44AM 43.9667 -78.5167 72° East 540 621 25,000  Level Toronto Center
11:45AM 44.0167 -78.3333 69° East 540 621 25,000  Level Toronto Center
11:46AM 44.0833 -78.1500 63° Northeast 540 621 25,000  Level Toronto Center
11:47AM 44.1500 -77.9667 63° Northeast 540 621 25,000  Level Toronto Center
11:48AM 44.2333 -77.8000 55° Northeast 530 610 25,000  Level Toronto Center
11:49AM 44.3167 -77.6333 55° Northeast 520 598 25,000  Level Toronto Center
11:50AM 44.4000 -77.4667 55° Northeast 510 587 25,000  Level Toronto Center
11:51AM 44.4667 -77.3000 61° Northeast 510 587 25,000 -360 Level Toronto Center
11:52AM 44.5500 -77.1667 49° Northeast 510 587 24,300 -1,140 Descending Montreal Center
11:53AM 44.6333 -76.9833 57° Northeast 510 587 22,700 -1,560 Descending Montreal Center
11:54AM 44.7000 -76.8333 58° Northeast 490 564 21,200 -1,800 Descending Montreal Center
11:55AM 44.7833 -76.6833 52° Northeast 470 541 19,100 -2,100 Descending Montreal Center
11:56AM 44.8500 -76.5333 58° Northeast 450 518 17,000 -2,100 Descending Montreal Center
11:57AM 44.9333 -76.4000 49° Northeast 450 518 14,900 -2,040 Descending Montreal Center
11:58AM 44.9833 -76.2500 65° Northeast 430 495 13,000 -1,860 Descending Montreal Center
11:59AM 45.0167 -76.1167 70° East 400 460 11,200 -1,500 Descending Montreal Center
12:00PM 45.0333 -75.9667 81° East 350 403 10,100 -1,320 Descending Montreal Center
12:01PM 45.0500 -75.8500 79° East 310 357 8,600 -1,800 Descending Montreal Center
12:02PM 45.0667 -75.7500 77° East 280 322 6,500 -1,920 Descending Montreal Center
12:03PM 45.0833 -75.6667 74° East 270 311 4,800 -1,320 Descending Montreal Center
12:04PM 45.1167 -75.5333 70° East 260 299 3,900 -480 Descending Montreal Center
12:05PM 45.1333 -75.4667 70° East 230 265 3,900 -240 Level Montreal Center
12:06PM 45.1833 -75.4500 13° North 220 253 3,500 -840 Descending Montreal Center
12:07PM 45.2167 -75.5167 305° West 200 230 2,300 -900 Descending Montreal Center
12:08PM 45.2500 -75.5667 313° West 160 184 1,800 -600 Descending Montreal Center
12:09PM 45.2667 -75.6167 295° West 130 150 1,100 -720 Descending Montreal Center
12:10PM 45.3000 -75.6667 313° West 130 150 400 -720 Descending Montreal Center